createdAt,value
2022-10-12T00:00:46.664Z,7.5
2022-10-12T00:01:55.004Z,7.5
2022-10-12T00:03:03.297Z,7.5
2022-10-12T00:04:11.835Z,7.2
2022-10-12T00:05:20.126Z,7.2
2022-10-12T00:06:28.447Z,7.2
2022-10-12T00:07:37.295Z,6.8
2022-10-12T00:08:45.285Z,6.8
2022-10-12T00:09:53.599Z,6.8
2022-10-12T00:11:02.123Z,8
2022-10-12T00:12:10.448Z,8
2022-10-12T00:13:18.755Z,8
2022-10-12T00:14:27.278Z,9.7
2022-10-12T00:15:35.597Z,9.7
2022-10-12T00:16:43.914Z,9.7
2022-10-12T00:17:52.428Z,8.8
2022-10-12T00:19:00.761Z,8.8
2022-10-12T00:20:09.396Z,8.8
2022-10-12T00:21:17.912Z,11.7
2022-10-12T00:22:26.234Z,11.7
2022-10-12T00:23:34.538Z,11.7
2022-10-12T00:24:43.178Z,10.4
2022-10-12T00:25:51.401Z,10.4
2022-10-12T00:26:59.710Z,10.4
2022-10-12T00:28:08.231Z,8.2
2022-10-12T00:29:16.550Z,8.2
2022-10-12T00:30:24.874Z,8.2
2022-10-12T00:31:33.409Z,8.3
2022-10-12T00:32:41.709Z,8.3
2022-10-12T00:33:50.040Z,8.3
2022-10-12T00:34:58.551Z,8.1
2022-10-12T00:36:06.900Z,8.1
2022-10-12T00:37:15.205Z,8.1
2022-10-12T00:38:23.731Z,8.3
2022-10-12T00:39:32.055Z,8.3
2022-10-12T00:40:40.363Z,8.3
2022-10-12T00:41:48.890Z,8
2022-10-12T00:42:57.212Z,8
2022-10-12T00:44:05.519Z,8
2022-10-12T00:45:14.055Z,8.3
2022-10-12T00:46:22.369Z,8.3
2022-10-12T00:47:30.668Z,8.3
2022-10-12T00:48:39.194Z,7.5
2022-10-12T00:49:47.508Z,7.5
2022-10-12T00:50:55.831Z,7.5
2022-10-12T00:52:04.380Z,7.9
2022-10-12T00:53:12.674Z,7.9
2022-10-12T00:54:20.978Z,7.9
2022-10-12T00:55:29.510Z,8
2022-10-12T00:56:37.828Z,8
2022-10-12T00:57:47.350Z,8
2022-10-12T00:58:54.672Z,7.9
2022-10-12T01:00:02.999Z,7.9
2022-10-12T01:01:11.364Z,7.9
2022-10-12T01:02:19.833Z,9.1
2022-10-12T01:03:28.175Z,9.1
2022-10-12T01:04:36.499Z,9.1
2022-10-12T01:05:45.040Z,8.7
2022-10-12T01:06:53.344Z,8.7
2022-10-12T01:08:01.694Z,8.7
2022-10-12T01:09:10.191Z,8.9
2022-10-12T01:10:18.511Z,8.9
2022-10-12T01:11:26.825Z,8.9
2022-10-12T01:12:35.337Z,8.3
2022-10-12T01:13:43.652Z,8.3
2022-10-12T01:14:51.973Z,8.3
2022-10-12T01:16:00.498Z,7
2022-10-12T01:17:08.827Z,7
2022-10-12T01:18:17.143Z,7
2022-10-12T01:19:25.662Z,10.1
2022-10-12T01:20:33.980Z,10.1
2022-10-12T01:21:42.303Z,10.1
2022-10-12T01:22:50.813Z,8.8
2022-10-12T01:23:59.148Z,8.8
2022-10-12T01:25:07.450Z,8.8
2022-10-12T01:26:15.967Z,9
2022-10-12T01:27:24.291Z,9
2022-10-12T01:28:32.630Z,9
2022-10-12T01:29:41.120Z,8.8
2022-10-12T01:30:49.434Z,8.8
2022-10-12T01:31:57.756Z,8.8
2022-10-12T01:33:06.277Z,7.5
2022-10-12T01:34:14.592Z,7.5
2022-10-12T01:35:22.912Z,7.5
2022-10-12T01:36:31.435Z,8.2
2022-10-12T01:37:39.985Z,8.2
2022-10-12T01:38:48.055Z,8.2
2022-10-12T01:39:56.612Z,9.2
2022-10-12T01:41:04.897Z,9.2
2022-10-12T01:42:13.211Z,9.2
2022-10-12T01:43:21.732Z,7.8
2022-10-12T01:44:30.059Z,7.8
2022-10-12T01:45:38.367Z,7.8
2022-10-12T01:46:46.884Z,7.8
2022-10-12T01:47:55.189Z,7.8
2022-10-12T01:49:03.511Z,7.8
2022-10-12T01:50:12.030Z,8.5
2022-10-12T01:51:20.342Z,8.5
2022-10-12T01:52:28.654Z,8.5
2022-10-12T01:53:37.187Z,8.2
2022-10-12T01:54:45.500Z,8.2
2022-10-12T01:55:53.834Z,8.2
2022-10-12T01:57:02.341Z,8.5
2022-10-12T01:58:11.357Z,8.5
2022-10-12T01:59:19.690Z,8.5
2022-10-12T02:00:28.219Z,7.5
2022-10-12T02:01:36.587Z,7.5
2022-10-12T02:02:44.855Z,7.5
2022-10-12T02:03:53.379Z,9.9
2022-10-12T02:05:01.701Z,9.9
2022-10-12T02:06:10.017Z,9.9
2022-10-12T02:07:18.536Z,12.6
2022-10-12T02:08:26.852Z,12.6
2022-10-12T02:09:35.172Z,12.6
2022-10-12T02:10:43.692Z,8.3
2022-10-12T02:11:52.032Z,8.3
2022-10-12T02:13:00.318Z,8.3
2022-10-12T02:14:08.844Z,7.8
2022-10-12T02:15:17.157Z,7.8
2022-10-12T02:16:25.463Z,7.8
2022-10-12T02:17:33.980Z,11.7
2022-10-12T02:18:42.310Z,11.7
2022-10-12T02:19:50.619Z,11.7
2022-10-12T02:20:59.153Z,11.3
2022-10-12T02:22:07.466Z,11.3
2022-10-12T02:23:15.776Z,11.3
2022-10-12T02:24:24.302Z,7.6
2022-10-12T02:25:32.614Z,7.6
2022-10-12T02:26:40.922Z,7.6
2022-10-12T02:27:49.485Z,7.7
2022-10-12T02:28:57.765Z,7.7
2022-10-12T02:30:06.076Z,7.7
2022-10-12T02:31:14.599Z,10.4
2022-10-12T02:32:22.916Z,10.4
2022-10-12T02:33:31.232Z,10.4
2022-10-12T02:34:39.761Z,9.2
2022-10-12T02:35:48.072Z,9.2
2022-10-12T02:36:56.392Z,9.2
2022-10-12T02:38:04.915Z,8.3
2022-10-12T02:39:13.226Z,8.3
2022-10-12T02:40:21.537Z,8.3
2022-10-12T02:41:30.059Z,8.4
2022-10-12T02:43:05.573Z,8.4
2022-10-12T02:43:46.713Z,8.4
2022-10-12T02:44:55.215Z,9.2
2022-10-12T02:46:03.529Z,9.2
2022-10-12T02:47:11.851Z,9.2
2022-10-12T02:48:20.383Z,9.4
2022-10-12T02:49:28.706Z,9.4
2022-10-12T02:50:37.033Z,9.4
2022-10-12T02:51:45.530Z,10.6
2022-10-12T02:52:53.853Z,10.6
2022-10-12T02:54:02.164Z,10.6
2022-10-12T02:55:10.700Z,9.8
2022-10-12T02:56:19.009Z,9.8
2022-10-12T02:57:27.318Z,9.8
2022-10-12T02:58:35.857Z,10.3
2022-10-12T02:59:44.189Z,10.3
2022-10-12T03:00:52.501Z,10.3
2022-10-12T03:02:01.014Z,10.6
2022-10-12T03:03:09.340Z,10.6
2022-10-12T03:04:17.664Z,10.6
2022-10-12T03:05:26.188Z,11.4
2022-10-12T03:06:34.499Z,11.4
2022-10-12T03:07:42.817Z,11.4
2022-10-12T03:08:51.343Z,10.6
2022-10-12T03:09:59.651Z,10.6
2022-10-12T03:11:07.967Z,10.6
2022-10-12T03:12:16.502Z,11.3
2022-10-12T03:13:24.817Z,11.3
2022-10-12T03:14:33.131Z,11.3
2022-10-12T03:15:41.667Z,10.5
2022-10-12T03:16:49.965Z,10.5
2022-10-12T03:17:58.282Z,10.5
2022-10-12T03:19:06.851Z,8.6
2022-10-12T03:20:15.163Z,8.6
2022-10-12T03:21:23.476Z,8.6
2022-10-12T03:22:31.999Z,8
2022-10-12T03:23:40.314Z,8
2022-10-12T03:24:48.627Z,8
2022-10-12T03:25:57.148Z,9.6
2022-10-12T03:27:05.468Z,9.6
2022-10-12T03:28:13.818Z,9.6
2022-10-12T03:29:22.300Z,10.3
2022-10-12T03:30:30.604Z,10.3
2022-10-12T03:31:38.952Z,10.3
2022-10-12T03:32:47.454Z,10.3
2022-10-12T03:33:55.763Z,10.3
2022-10-12T03:35:04.081Z,10.3
2022-10-12T03:36:12.618Z,9.2
2022-10-12T03:37:20.937Z,9.2
2022-10-12T03:38:29.246Z,9.2
2022-10-12T03:39:37.775Z,14.4
2022-10-12T03:40:46.078Z,14.4
2022-10-12T03:41:54.403Z,14.4
2022-10-12T03:43:02.938Z,10.5
2022-10-12T03:44:11.238Z,10.5
2022-10-12T03:45:19.557Z,10.5
2022-10-12T03:46:28.095Z,8.7
2022-10-12T03:47:36.664Z,8.7
2022-10-12T03:48:44.742Z,8.7
2022-10-12T03:49:53.290Z,10.6
2022-10-12T03:51:01.601Z,10.6
2022-10-12T03:52:09.913Z,10.6
2022-10-12T03:53:18.435Z,10.5
2022-10-12T03:54:26.749Z,10.5
2022-10-12T03:55:35.083Z,10.5
2022-10-12T03:56:43.609Z,11.4
2022-10-12T03:57:51.934Z,11.4
2022-10-12T03:59:00.292Z,11.4
2022-10-12T04:00:08.838Z,8.6
2022-10-12T04:01:17.206Z,8.6
2022-10-12T04:02:25.499Z,8.6
2022-10-12T04:03:34.044Z,13
2022-10-12T04:04:42.343Z,13
2022-10-12T04:05:50.714Z,13
2022-10-12T04:06:59.241Z,9.8
2022-10-12T04:08:07.596Z,9.8
2022-10-12T04:09:15.920Z,9.8
2022-10-12T04:10:24.437Z,11
2022-10-12T04:11:32.761Z,11
2022-10-12T04:12:41.080Z,11
2022-10-12T04:13:49.602Z,11.6
2022-10-12T04:14:57.914Z,11.6
2022-10-12T04:16:06.238Z,11.6
2022-10-12T04:17:14.760Z,10.8
2022-10-12T04:18:23.070Z,10.8
2022-10-12T04:19:31.469Z,10.8
2022-10-12T04:20:39.964Z,10.1
2022-10-12T04:21:48.289Z,10.1
2022-10-12T04:22:56.589Z,10.1
2022-10-12T04:24:05.114Z,10
2022-10-12T04:25:13.426Z,10
2022-10-12T04:26:21.747Z,10
2022-10-12T04:27:30.270Z,9.8
2022-10-12T04:28:38.664Z,9.8
2022-10-12T04:29:46.886Z,9.8
2022-10-12T04:30:55.413Z,10.9
2022-10-12T04:32:03.724Z,10.9
2022-10-12T04:33:12.035Z,10.9
2022-10-12T04:34:20.560Z,12.3
2022-10-12T04:35:28.896Z,12.3
2022-10-12T04:36:37.183Z,12.3
2022-10-12T04:37:45.712Z,9.6
2022-10-12T04:38:57.117Z,9.6
2022-10-12T04:40:02.342Z,9.6
2022-10-12T04:41:10.873Z,12.5
2022-10-12T04:42:19.183Z,12.5
2022-10-12T04:43:27.491Z,12.5
2022-10-12T04:44:36.010Z,12.6
2022-10-12T04:45:44.339Z,12.6
2022-10-12T04:46:52.653Z,12.6
2022-10-12T04:48:01.171Z,11.2
2022-10-12T04:49:09.490Z,11.2
2022-10-12T04:50:17.829Z,11.2
2022-10-12T04:51:26.448Z,10.4
2022-10-12T04:52:34.757Z,10.4
2022-10-12T04:53:43.063Z,10.4
2022-10-12T04:54:51.598Z,13.6
2022-10-12T04:55:59.921Z,13.6
2022-10-12T04:57:08.231Z,13.6
2022-10-12T04:58:16.806Z,10.7
2022-10-12T04:59:25.132Z,10.7
2022-10-12T05:00:33.448Z,10.7
2022-10-12T05:01:42.020Z,10.8
2022-10-12T05:02:50.282Z,10.8
2022-10-12T05:03:58.594Z,10.8
2022-10-12T05:05:07.129Z,11.1
2022-10-12T05:06:15.437Z,11.1
2022-10-12T05:07:23.785Z,11.1
2022-10-12T05:08:32.284Z,11.9
2022-10-12T05:09:40.606Z,11.9
2022-10-12T05:10:48.936Z,11.9
2022-10-12T05:11:57.474Z,12.4
2022-10-12T05:13:05.792Z,12.4
2022-10-12T05:14:14.113Z,12.4
2022-10-12T05:15:22.651Z,16.1
2022-10-12T05:16:30.956Z,16.1
2022-10-12T05:17:39.778Z,16.1
2022-10-12T05:18:47.832Z,14.1
2022-10-12T05:19:56.191Z,14.1
2022-10-12T05:21:04.514Z,14.1
2022-10-12T05:22:13.032Z,14.5
2022-10-12T05:23:21.383Z,14.5
2022-10-12T05:24:29.682Z,14.5
2022-10-12T05:25:38.188Z,10.3
2022-10-12T05:26:46.502Z,10.3
2022-10-12T05:27:54.811Z,10.3
2022-10-12T05:29:03.460Z,9.5
2022-10-12T05:30:11.649Z,9.5
2022-10-12T05:31:19.967Z,9.5
2022-10-12T05:32:28.495Z,13
2022-10-12T05:33:36.816Z,13
2022-10-12T05:34:45.136Z,13
2022-10-12T05:35:56.478Z,12.8
2022-10-12T05:37:01.977Z,12.8
2022-10-12T05:38:10.298Z,12.8
2022-10-12T05:39:18.850Z,14.8
2022-10-12T05:40:27.131Z,14.8
2022-10-12T05:41:35.448Z,14.8
2022-10-12T05:42:43.981Z,13.2
2022-10-12T05:43:52.330Z,13.2
2022-10-12T05:45:00.669Z,13.2
2022-10-12T05:46:13.582Z,13.3
2022-10-12T05:47:17.502Z,13.3
2022-10-12T05:48:25.823Z,13.3
2022-10-12T05:49:34.360Z,15.7
2022-10-12T05:50:42.715Z,15.7
2022-10-12T05:51:51.040Z,15.7
2022-10-12T05:52:59.575Z,13.8
2022-10-12T05:54:07.935Z,13.8
2022-10-12T05:55:16.287Z,13.8
2022-10-12T05:56:24.802Z,15.3
2022-10-12T05:57:33.118Z,15.3
2022-10-12T05:58:41.446Z,15.3
2022-10-12T05:59:50.000Z,13.6
2022-10-12T06:00:58.332Z,13.6
2022-10-12T06:02:06.680Z,13.6
2022-10-12T06:03:18.405Z,19.5
2022-10-12T06:04:23.527Z,19.5
2022-10-12T06:05:31.860Z,19.5
2022-10-12T06:06:40.407Z,14.6
2022-10-12T06:07:48.743Z,14.6
2022-10-12T06:08:57.083Z,14.6
2022-10-12T06:10:05.621Z,14.5
2022-10-12T06:11:13.995Z,14.5
2022-10-12T06:12:22.305Z,14.5
2022-10-12T06:13:30.841Z,15.7
2022-10-12T06:14:39.152Z,15.7
2022-10-12T06:15:47.482Z,15.7
2022-10-12T06:16:56.030Z,13.8
2022-10-12T06:18:04.363Z,13.8
2022-10-12T06:19:12.720Z,13.8
2022-10-12T06:20:21.246Z,14.1
2022-10-12T06:21:33.830Z,14.1
2022-10-12T06:22:38.160Z,14.1
2022-10-12T06:23:46.453Z,12.9
2022-10-12T06:24:54.759Z,12.9
2022-10-12T06:26:03.087Z,12.9
2022-10-12T06:27:11.648Z,13.8
2022-10-12T06:28:19.974Z,13.8
2022-10-12T06:29:28.296Z,13.8
2022-10-12T06:30:36.822Z,15.9
2022-10-12T06:31:49.082Z,15.9
2022-10-12T06:32:53.474Z,15.9
2022-10-12T06:34:02.004Z,12.5
2022-10-12T06:35:10.343Z,12.5
2022-10-12T06:36:18.676Z,12.5
2022-10-12T06:37:48.338Z,13.8
2022-10-12T06:38:35.555Z,13.8
2022-10-12T06:39:43.887Z,13.8
2022-10-12T06:40:52.431Z,14.9
2022-10-12T06:42:00.759Z,14.9
2022-10-12T06:43:09.110Z,14.9
2022-10-12T06:44:17.635Z,14
2022-10-12T06:45:25.982Z,14
2022-10-12T06:46:34.327Z,14
2022-10-12T06:47:42.852Z,11.9
2022-10-12T06:48:51.203Z,11.9
2022-10-12T06:49:59.533Z,11.9
2022-10-12T06:51:08.115Z,13.1
2022-10-12T06:52:16.430Z,13.1
2022-10-12T06:53:24.765Z,13.1
2022-10-12T06:54:33.298Z,12.3
2022-10-12T06:55:41.629Z,12.3
2022-10-12T06:56:49.971Z,12.3
2022-10-12T06:57:58.514Z,14
2022-10-12T06:59:06.859Z,14
2022-10-12T07:00:15.164Z,14
2022-10-12T07:01:23.761Z,13.6
2022-10-12T07:02:32.023Z,13.6
2022-10-12T07:03:40.368Z,13.6
2022-10-12T07:04:48.897Z,12.8
2022-10-12T07:05:57.205Z,12.8
2022-10-12T07:07:05.551Z,12.8
2022-10-12T07:08:14.114Z,17
2022-10-12T07:09:22.450Z,17
2022-10-12T07:10:30.768Z,17
2022-10-12T07:11:39.299Z,14.5
2022-10-12T07:12:47.629Z,14.5
2022-10-12T07:13:55.959Z,14.5
2022-10-12T07:15:04.533Z,13.4
2022-10-12T07:16:12.819Z,13.4
2022-10-12T07:17:21.137Z,13.4
2022-10-12T07:18:29.679Z,14.1
2022-10-12T07:19:37.986Z,14.1
2022-10-12T07:20:46.304Z,14.1
2022-10-12T07:21:54.830Z,11.5
2022-10-12T07:23:03.171Z,11.5
2022-10-12T07:24:11.488Z,11.5
2022-10-12T07:25:20.041Z,12.5
2022-10-12T07:26:28.388Z,12.5
2022-10-12T07:27:37.008Z,12.5
2022-10-12T07:28:45.352Z,11.4
2022-10-12T07:29:53.619Z,11.4
2022-10-12T07:31:01.979Z,11.4
2022-10-12T07:32:10.499Z,14.4
2022-10-12T07:33:18.832Z,14.4
2022-10-12T07:34:27.174Z,14.4
2022-10-12T07:35:40.173Z,17.1
2022-10-12T07:36:58.437Z,17.1
2022-10-12T07:37:52.356Z,17.1
2022-10-12T07:39:00.896Z,14.5
2022-10-12T07:40:09.230Z,14.5
2022-10-12T07:41:17.580Z,14.5
2022-10-12T07:42:26.138Z,14.2
2022-10-12T07:43:34.447Z,14.2
2022-10-12T07:44:42.775Z,14.2
2022-10-12T07:45:51.320Z,13.4
2022-10-12T07:46:59.670Z,13.4
2022-10-12T07:48:07.983Z,13.4
2022-10-12T07:49:16.535Z,12.3
2022-10-12T07:50:24.863Z,12.3
2022-10-12T07:51:33.183Z,12.3
2022-10-12T07:52:41.735Z,12.6
2022-10-12T07:53:50.068Z,12.6
2022-10-12T07:54:58.387Z,12.6
2022-10-12T07:56:06.944Z,11.2
2022-10-12T07:57:15.276Z,11.2
2022-10-12T07:58:23.609Z,11.2
2022-10-12T07:59:32.156Z,14.8
2022-10-12T08:00:40.502Z,14.8
2022-10-12T08:01:48.958Z,14.8
2022-10-12T08:02:57.417Z,15.6
2022-10-12T08:04:05.717Z,15.6
2022-10-12T08:05:14.041Z,15.6
2022-10-12T08:06:22.569Z,14.9
2022-10-12T08:07:30.907Z,14.9
2022-10-12T08:08:39.239Z,14.9
2022-10-12T08:09:47.784Z,12
2022-10-12T08:10:56.119Z,12
2022-10-12T08:12:04.455Z,12
2022-10-12T08:13:13.003Z,13.2
2022-10-12T08:14:21.337Z,13.2
2022-10-12T08:15:29.658Z,13.2
2022-10-12T08:16:38.203Z,11.9
2022-10-12T08:17:46.551Z,11.9
2022-10-12T08:18:54.899Z,11.9
2022-10-12T08:20:03.410Z,11
2022-10-12T08:21:11.768Z,11
2022-10-12T08:22:20.064Z,11
2022-10-12T08:23:29.309Z,13.3
2022-10-12T08:24:37.618Z,13.3
2022-10-12T08:25:45.958Z,13.3
2022-10-12T08:26:57.929Z,13.3
2022-10-12T08:28:02.858Z,13.3
2022-10-12T08:29:11.190Z,13.3
2022-10-12T08:30:19.700Z,14.7
2022-10-12T08:31:28.036Z,14.7
2022-10-12T08:32:36.352Z,14.7
2022-10-12T08:33:44.883Z,11.1
2022-10-12T08:34:53.255Z,11.1
2022-10-12T08:36:01.593Z,11.1
2022-10-12T08:37:10.148Z,10.5
2022-10-12T08:38:18.471Z,10.5
2022-10-12T08:39:26.787Z,10.5
2022-10-12T08:40:35.332Z,10.6
2022-10-12T08:41:43.671Z,10.6
2022-10-12T08:42:51.999Z,10.6
2022-10-12T08:44:00.532Z,13.1
2022-10-12T08:45:08.854Z,13.1
2022-10-12T08:46:17.185Z,13.1
2022-10-12T08:47:25.726Z,12.2
2022-10-12T08:48:34.047Z,12.2
2022-10-12T08:49:45.137Z,12.2
2022-10-12T08:50:50.966Z,11.1
2022-10-12T08:51:59.231Z,11.1
2022-10-12T08:53:07.560Z,11.1
2022-10-12T08:54:16.092Z,9.9
2022-10-12T08:55:24.422Z,9.9
2022-10-12T08:56:32.758Z,9.9
2022-10-12T08:57:41.304Z,10.8
2022-10-12T08:58:49.619Z,10.8
2022-10-12T08:59:57.941Z,10.8
2022-10-12T09:01:06.471Z,10.7
2022-10-12T09:02:14.883Z,10.7
2022-10-12T09:03:23.152Z,10.7
2022-10-12T09:04:31.698Z,10.8
2022-10-12T09:05:40.017Z,10.8
2022-10-12T09:06:48.396Z,10.8
2022-10-12T09:07:56.903Z,12.9
2022-10-12T09:09:05.243Z,12.9
2022-10-12T09:10:13.563Z,12.9
2022-10-12T09:11:22.089Z,11.5
2022-10-12T09:12:30.437Z,11.5
2022-10-12T09:13:38.775Z,11.5
2022-10-12T09:14:47.309Z,9.3
2022-10-12T09:15:55.629Z,9.3
2022-10-12T09:17:03.955Z,9.3
2022-10-12T09:18:12.481Z,11.7
2022-10-12T09:19:20.807Z,11.7
2022-10-12T09:20:29.150Z,11.7
2022-10-12T09:21:37.686Z,11.5
2022-10-12T09:22:46.028Z,11.5
2022-10-12T09:23:54.325Z,11.5
2022-10-12T09:25:02.860Z,11
2022-10-12T09:26:11.197Z,11
2022-10-12T09:27:19.528Z,11
2022-10-12T09:28:28.113Z,11.7
2022-10-12T09:29:36.391Z,11.7
2022-10-12T09:30:44.720Z,11.7
2022-10-12T09:31:53.264Z,10.4
2022-10-12T09:33:01.589Z,10.4
2022-10-12T09:34:09.906Z,10.4
2022-10-12T09:35:18.520Z,8.9
2022-10-12T09:36:26.764Z,8.9
2022-10-12T09:37:35.089Z,8.9
2022-10-12T09:38:43.641Z,8.9
2022-10-12T09:39:52.270Z,8.9
2022-10-12T09:41:00.590Z,8.9
2022-10-12T09:42:09.126Z,11
2022-10-12T09:43:17.448Z,11
2022-10-12T09:44:25.777Z,11
2022-10-12T09:45:34.342Z,12
2022-10-12T09:46:42.665Z,12
2022-10-12T09:47:50.984Z,12
2022-10-12T09:48:59.506Z,11.6
2022-10-12T09:50:07.835Z,11.6
2022-10-12T09:51:16.191Z,11.6
2022-10-12T09:52:24.723Z,12.3
2022-10-12T09:53:33.053Z,12.3
2022-10-12T09:54:41.428Z,12.3
2022-10-12T09:55:49.933Z,10.7
2022-10-12T09:56:58.262Z,10.7
2022-10-12T09:58:06.615Z,10.7
2022-10-12T09:59:15.151Z,10.2
2022-10-12T10:00:23.488Z,10.2
2022-10-12T10:01:31.874Z,10.2
2022-10-12T10:02:40.390Z,12.1
2022-10-12T10:03:48.717Z,12.1
2022-10-12T10:04:57.041Z,12.1
2022-10-12T10:06:05.598Z,11.3
2022-10-12T10:07:13.941Z,11.3
2022-10-12T10:08:22.263Z,11.3
2022-10-12T10:09:30.795Z,10.2
2022-10-12T10:10:39.181Z,10.2
2022-10-12T10:11:47.477Z,10.2
2022-10-12T10:12:56.007Z,10
2022-10-12T10:14:04.349Z,10
2022-10-12T10:15:12.723Z,10
2022-10-12T10:16:21.259Z,10.4
2022-10-12T10:17:29.593Z,10.4
2022-10-12T10:18:37.929Z,10.4
2022-10-12T10:19:46.476Z,12.9
2022-10-12T10:20:54.814Z,12.9
2022-10-12T10:22:03.133Z,12.9
2022-10-12T10:23:11.678Z,11.9
2022-10-12T10:24:20.008Z,11.9
2022-10-12T10:25:28.344Z,11.9
2022-10-12T10:26:36.899Z,13.4
2022-10-12T10:27:45.205Z,13.4
2022-10-12T10:28:53.622Z,13.4
2022-10-12T10:30:10.522Z,11.5
2022-10-12T10:31:10.468Z,11.5
2022-10-12T10:32:18.814Z,11.5
2022-10-12T10:33:27.344Z,9.9
2022-10-12T10:34:35.693Z,9.9
2022-10-12T10:35:46.862Z,9.9
2022-10-12T10:36:52.600Z,13.8
2022-10-12T10:38:00.925Z,13.8
2022-10-12T10:39:09.243Z,13.8
2022-10-12T10:40:18.170Z,11.6
2022-10-12T10:41:26.158Z,11.6
2022-10-12T10:42:34.502Z,11.6
2022-10-12T10:43:43.006Z,15.9
2022-10-12T10:44:51.328Z,15.9
2022-10-12T10:45:59.682Z,15.9
2022-10-12T10:47:08.217Z,10.1
2022-10-12T10:48:16.538Z,10.1
2022-10-12T10:49:24.866Z,10.1
2022-10-12T10:50:33.409Z,12.7
2022-10-12T10:51:41.753Z,12.7
2022-10-12T10:52:50.109Z,12.7
2022-10-12T10:53:58.650Z,14.2
2022-10-12T10:55:06.982Z,14.2
2022-10-12T10:56:15.340Z,14.2
2022-10-12T10:57:23.865Z,13.8
2022-10-12T10:58:32.209Z,13.8
2022-10-12T10:59:40.551Z,13.8
2022-10-12T11:00:49.502Z,14.3
2022-10-12T11:01:57.504Z,14.3
2022-10-12T11:03:05.818Z,14.3
2022-10-12T11:04:14.299Z,13.1
2022-10-12T11:05:22.640Z,13.1
2022-10-12T11:06:30.970Z,13.1
2022-10-12T11:07:39.489Z,12.3
2022-10-12T11:08:47.813Z,12.3
2022-10-12T11:09:56.182Z,12.3
2022-10-12T11:11:04.803Z,11.6
2022-10-12T11:12:13.070Z,11.6
2022-10-12T11:13:21.405Z,11.6
2022-10-12T11:14:30.080Z,13.1
2022-10-12T11:15:38.298Z,13.1
2022-10-12T11:16:46.659Z,13.1
2022-10-12T11:17:55.186Z,10.9
2022-10-12T11:19:03.519Z,10.9
2022-10-12T11:20:14.588Z,10.9
2022-10-12T11:21:20.437Z,14.3
2022-10-12T11:22:28.784Z,14.3
2022-10-12T11:23:37.142Z,14.3
2022-10-12T11:24:45.650Z,13.2
2022-10-12T11:25:53.993Z,13.2
2022-10-12T11:27:02.345Z,13.2
2022-10-12T11:28:10.904Z,11.9
2022-10-12T11:29:19.219Z,11.9
2022-10-12T11:30:27.574Z,11.9
2022-10-12T11:31:36.076Z,12.1
2022-10-12T11:32:44.396Z,12.1
2022-10-12T11:33:52.720Z,12.1
2022-10-12T11:35:01.258Z,9.2
2022-10-12T11:36:09.583Z,9.2
2022-10-12T11:37:20.230Z,9.2
2022-10-12T11:38:26.480Z,9.6
2022-10-12T11:39:34.830Z,9.6
2022-10-12T11:42:16.710Z,11
2022-10-12T11:43:00.017Z,11
2022-10-12T11:44:08.341Z,11
2022-10-12T11:45:16.894Z,11.2
2022-10-12T11:46:25.228Z,11.2
2022-10-12T11:47:33.527Z,11.2
2022-10-12T11:48:42.047Z,9.7
2022-10-12T11:49:50.384Z,9.7
2022-10-12T11:51:02.981Z,9.7
2022-10-12T11:52:07.230Z,10.8
2022-10-12T11:53:15.542Z,10.8
2022-10-12T11:54:23.871Z,10.8
2022-10-12T11:55:32.421Z,11
2022-10-12T11:56:40.747Z,11
2022-10-12T11:57:49.065Z,11
2022-10-12T11:59:00.863Z,9.2
2022-10-12T12:00:05.996Z,9.2
2022-10-12T12:01:14.263Z,9.2
2022-10-12T12:02:22.815Z,9.2
2022-10-12T12:03:31.194Z,9.2
2022-10-12T12:04:42.467Z,9.2
2022-10-12T12:05:47.956Z,7.8
2022-10-12T12:06:56.274Z,7.8
2022-10-12T12:08:04.592Z,7.8
2022-10-12T12:09:13.125Z,10.8
2022-10-12T12:10:21.462Z,10.8
2022-10-12T12:11:29.779Z,10.8
2022-10-12T12:12:38.305Z,10.3
2022-10-12T12:13:46.625Z,10.3
2022-10-12T12:14:54.935Z,10.3
2022-10-12T12:16:03.482Z,13.3
2022-10-12T12:17:11.816Z,13.3
2022-10-12T12:18:20.178Z,13.3
2022-10-12T12:19:28.689Z,9.5
2022-10-12T12:20:37.007Z,9.5
2022-10-12T12:21:45.329Z,9.5
2022-10-12T12:22:53.855Z,8.7
2022-10-12T12:24:02.170Z,8.7
2022-10-12T12:25:10.513Z,8.7
2022-10-12T12:26:19.052Z,8.6
2022-10-12T12:27:27.370Z,8.6
2022-10-12T12:28:35.776Z,8.6
2022-10-12T12:29:44.524Z,7.8
2022-10-12T12:30:52.546Z,7.8
2022-10-12T12:32:00.877Z,7.8
2022-10-12T12:33:09.413Z,8.4
2022-10-12T12:34:17.767Z,8.4
2022-10-12T12:35:26.083Z,8.4
2022-10-12T12:36:34.616Z,6.6
2022-10-12T12:37:42.940Z,6.6
2022-10-12T12:38:51.261Z,6.6
2022-10-12T12:39:59.817Z,7.8
2022-10-12T12:41:08.163Z,7.8
2022-10-12T12:42:16.500Z,7.8
2022-10-12T12:43:25.029Z,9.8
2022-10-12T12:44:33.381Z,9.8
2022-10-12T12:45:41.684Z,9.8
2022-10-12T12:46:50.217Z,11.4
2022-10-12T12:47:58.585Z,11.4
2022-10-12T12:49:06.878Z,11.4
2022-10-12T12:50:15.470Z,10.7
2022-10-12T12:51:23.747Z,10.7
2022-10-12T12:52:32.074Z,10.7
2022-10-12T12:53:40.619Z,9.8
2022-10-12T12:54:52.209Z,9.8
2022-10-12T12:55:57.294Z,9.8
2022-10-12T12:57:05.828Z,10.2
2022-10-12T12:58:14.190Z,10.2
2022-10-12T12:59:22.490Z,10.2
2022-10-12T13:00:33.275Z,9
2022-10-12T13:01:39.393Z,9
2022-10-12T13:02:49.180Z,9
2022-10-12T13:03:56.218Z,7.9
2022-10-12T13:05:04.533Z,7.9
2022-10-12T13:06:12.903Z,7.9
2022-10-12T13:07:21.407Z,7.5
2022-10-12T13:08:29.725Z,7.5
2022-10-12T13:09:38.106Z,7.5
2022-10-12T13:10:46.649Z,8.3
2022-10-12T13:11:54.954Z,8.3
2022-10-12T13:13:03.274Z,8.3
2022-10-12T13:14:11.811Z,7.2
2022-10-12T13:15:20.144Z,7.2
2022-10-12T13:17:09.857Z,7.2
2022-10-12T13:17:39.876Z,10
2022-10-12T13:20:42.197Z,10
2022-10-12T13:21:50.716Z,7.3
2022-10-12T13:22:59.021Z,7.3
2022-10-12T13:24:07.335Z,7.3
2022-10-12T13:25:15.898Z,8.3
2022-10-12T13:26:24.225Z,8.3
2022-10-12T13:27:32.954Z,8.3
2022-10-12T13:28:41.171Z,10.4
2022-10-12T13:29:49.475Z,10.4
2022-10-12T13:30:57.781Z,10.4
2022-10-12T13:32:06.376Z,9.5
2022-10-12T13:33:14.689Z,9.5
2022-10-12T13:34:23.017Z,9.5
2022-10-12T13:35:31.561Z,9.2
2022-10-12T13:36:39.940Z,9.2
2022-10-12T13:37:48.196Z,9.2
2022-10-12T13:38:56.746Z,7
2022-10-12T13:40:05.154Z,7
2022-10-12T13:41:13.487Z,7
2022-10-12T13:42:22.010Z,8.5
2022-10-12T13:43:30.338Z,8.5
2022-10-12T13:44:38.680Z,8.5
2022-10-12T13:45:47.213Z,6.6
2022-10-12T13:46:55.589Z,6.6
2022-10-12T13:48:03.988Z,6.6
2022-10-12T13:49:12.613Z,6.8
2022-10-12T13:50:20.951Z,6.8
2022-10-12T13:51:29.267Z,6.8
2022-10-12T13:52:39.745Z,6.7
2022-10-12T13:53:48.182Z,6.7
2022-10-12T13:54:56.670Z,6.7
2022-10-12T13:56:05.199Z,7.4
2022-10-12T13:57:13.521Z,7.4
2022-10-12T13:58:21.851Z,7.4
2022-10-12T13:59:30.398Z,8.9
2022-10-12T14:00:38.780Z,8.9
2022-10-12T14:01:47.090Z,8.9
2022-10-12T14:02:55.625Z,8.9
2022-10-12T14:04:03.970Z,8.9
2022-10-12T14:05:12.283Z,8.9
2022-10-12T14:06:20.806Z,8.4
2022-10-12T14:07:29.123Z,8.4
2022-10-12T14:08:37.461Z,8.4
2022-10-12T14:09:45.979Z,8.5
2022-10-12T14:10:54.313Z,8.5
2022-10-12T14:12:02.660Z,8.5
2022-10-12T14:13:11.199Z,7.6
2022-10-12T14:14:19.624Z,7.6
2022-10-12T14:15:27.992Z,7.6
2022-10-12T14:16:36.535Z,6.4
2022-10-12T14:17:44.881Z,6.4
2022-10-12T14:18:53.208Z,6.4
2022-10-12T14:20:01.738Z,8.5
2022-10-12T14:21:10.061Z,8.5
2022-10-12T14:22:18.451Z,8.5
2022-10-12T14:23:26.949Z,9.9
2022-10-12T14:24:35.295Z,9.9
2022-10-12T14:25:43.595Z,9.9
2022-10-12T14:26:52.135Z,9.5
2022-10-12T14:28:00.454Z,9.5
2022-10-12T14:29:08.826Z,9.5
2022-10-12T15:02:54.775Z,0
2022-10-12T15:04:03.058Z,0
2022-10-12T15:05:11.372Z,0
2022-10-12T15:06:19.911Z,6.3
2022-10-12T15:07:28.233Z,6.3
2022-10-12T15:08:36.553Z,6.3
2022-10-12T15:09:45.089Z,8.4
2022-10-12T15:10:53.402Z,8.4
2022-10-12T15:12:01.721Z,8.4
2022-10-12T15:13:10.245Z,6.6
2022-10-12T15:14:18.579Z,6.6
2022-10-12T15:15:29.056Z,6.6
2022-10-12T15:16:35.433Z,6.7
2022-10-12T15:17:43.762Z,6.7
2022-10-12T15:18:52.105Z,6.7
2022-10-12T15:20:00.644Z,9.1
2022-10-12T15:21:08.947Z,9.1
2022-10-12T15:22:17.279Z,9.1
2022-10-12T15:23:25.821Z,9.5
2022-10-12T15:24:34.141Z,9.5
2022-10-12T15:25:42.453Z,9.5
2022-10-12T15:26:50.978Z,9.6
2022-10-12T15:27:59.301Z,9.6
2022-10-12T15:29:07.627Z,9.6
2022-10-12T15:30:16.167Z,9.9
2022-10-12T15:31:24.487Z,9.9
2022-10-12T15:32:32.839Z,9.9
2022-10-12T15:33:41.383Z,10.7
2022-10-12T15:34:49.780Z,10.7
2022-10-12T15:35:58.023Z,10.7
2022-10-12T15:37:08.960Z,8.1
2022-10-12T15:38:14.876Z,8.1
2022-10-12T15:39:23.193Z,8.1
2022-10-12T15:40:31.733Z,16.6
2022-10-12T15:41:40.048Z,16.6
2022-10-12T15:42:48.384Z,16.6
2022-10-12T15:43:56.905Z,12.3
2022-10-12T15:45:05.235Z,12.3
2022-10-12T15:46:13.545Z,12.3
2022-10-12T15:47:22.180Z,10.6
2022-10-12T15:48:30.494Z,10.6
2022-10-12T15:49:38.812Z,10.6
2022-10-12T15:50:47.396Z,14.4
2022-10-12T15:51:55.698Z,14.4
2022-10-12T15:53:04.028Z,14.4
2022-10-12T15:54:12.584Z,11
2022-10-12T15:55:20.928Z,11
2022-10-12T15:56:29.268Z,11
2022-10-12T15:57:37.822Z,11.3
2022-10-12T15:58:46.167Z,11.3
2022-10-12T15:59:54.506Z,11.3
2022-10-12T16:01:03.097Z,10.7
2022-10-12T16:02:11.393Z,10.7
2022-10-12T16:03:24.478Z,10.7
2022-10-12T16:04:28.257Z,9.9